< < Back
Terminal Aerodrome Forecast


Current Version              Previous Versions:   1  2  3  4  5  6  7  8  9  

Terminal Aerodrome Forecast

256
FTAK31 PAJN 021146
TAFAHN
TAF
PAHN 021146Z 0212/0312 29009KT 5SM -RA BR SCT015 OVC025
      TEMPO 0212/0214 3SM -RA SCT008 BKN015 OVC025
     FM021500 11011G23KT 5SM -RA BR SCT015 OVC040
     FM021800 08015G27KT P6SM -RA SCT015 OVC040
     FM022200 10010G21KT P6SM VCSH SCT015 OVC040
     FM030300 08009KT P6SM VCSH BKN040 OVC080
      AMD LTD TO CLD VIS AND WIND=



Latest METAR

683
SAUS70 KWBC 021200 RRA
MTRAHN
METAR KAHN 021151Z 00000KT 6SM BR FEW070 BKN120 21/20 A3004 RMK AO2
SLP165 70002 T02060200 10206 20200 53008


USA.gov is the U.S. government's official web portal to all federal, state and local government web resources and services.